sensor_id;sensor_type;location;lat;lon;timestamp;P1;durP1;ratioP1;P2;durP2;ratioP2
16354;SDS011;8287;51.644;8.494;2023-08-21T00:02:23;3.47;;;2.65;;
16354;SDS011;8287;51.644;8.494;2023-08-21T00:04:50;3.28;;;2.70;;
16354;SDS011;8287;51.644;8.494;2023-08-21T00:07:17;2.55;;;2.35;;
16354;SDS011;8287;51.644;8.494;2023-08-21T00:09:44;8.05;;;3.15;;
16354;SDS011;8287;51.644;8.494;2023-08-21T00:12:10;3.35;;;3.05;;
16354;SDS011;8287;51.644;8.494;2023-08-21T00:14:37;3.38;;;2.50;;
16354;SDS011;8287;51.644;8.494;2023-08-21T00:17:04;6.57;;;2.83;;
16354;SDS011;8287;51.644;8.494;2023-08-21T00:19:32;3.25;;;2.92;;
16354;SDS011;8287;51.644;8.494;2023-08-21T00:21:59;3.45;;;2.50;;
16354;SDS011;8287;51.644;8.494;2023-08-21T00:24:26;5.13;;;3.13;;
16354;SDS011;8287;51.644;8.494;2023-08-21T00:26:52;4.85;;;3.38;;
16354;SDS011;8287;51.644;8.494;2023-08-21T00:29:19;5.32;;;4.63;;
16354;SDS011;8287;51.644;8.494;2023-08-21T00:31:46;5.40;;;3.20;;
16354;SDS011;8287;51.644;8.494;2023-08-21T00:34:12;3.05;;;2.85;;
16354;SDS011;8287;51.644;8.494;2023-08-21T00:36:40;5.20;;;3.05;;
16354;SDS011;8287;51.644;8.494;2023-08-21T00:39:07;2.90;;;2.70;;
16354;SDS011;8287;51.644;8.494;2023-08-21T00:41:34;5.47;;;3.22;;
16354;SDS011;8287;51.644;8.494;2023-08-21T00:44:00;4.35;;;3.88;;
16354;SDS011;8287;51.644;8.494;2023-08-21T00:46:27;4.10;;;3.42;;
16354;SDS011;8287;51.644;8.494;2023-08-21T00:48:54;3.40;;;3.10;;
16354;SDS011;8287;51.644;8.494;2023-08-21T00:51:20;5.38;;;3.33;;
16354;SDS011;8287;51.644;8.494;2023-08-21T00:53:48;5.57;;;3.75;;
16354;SDS011;8287;51.644;8.494;2023-08-21T00:56:15;4.80;;;4.10;;
16354;SDS011;8287;51.644;8.494;2023-08-21T00:58:42;6.65;;;3.85;;
16354;SDS011;8287;51.644;8.494;2023-08-21T01:01:09;5.57;;;4.18;;
16354;SDS011;8287;51.644;8.494;2023-08-21T01:03:37;5.10;;;4.35;;
16354;SDS011;8287;51.644;8.494;2023-08-21T01:06:04;5.05;;;4.15;;
16354;SDS011;8287;51.644;8.494;2023-08-21T01:08:34;4.35;;;3.40;;
16354;SDS011;8287;51.644;8.494;2023-08-21T01:11:10;5.05;;;4.07;;
16354;SDS011;8287;51.644;8.494;2023-08-21T01:13:44;6.55;;;4.20;;
16354;SDS011;8287;51.644;8.494;2023-08-21T01:16:20;5.47;;;4.38;;
16354;SDS011;8287;51.644;8.494;2023-08-21T01:18:48;5.18;;;4.32;;
16354;SDS011;8287;51.644;8.494;2023-08-21T01:21:15;4.82;;;4.28;;
16354;SDS011;8287;51.644;8.494;2023-08-21T01:23:44;5.65;;;4.03;;
16354;SDS011;8287;51.644;8.494;2023-08-21T01:26:10;5.22;;;4.65;;
16354;SDS011;8287;51.644;8.494;2023-08-21T01:28:37;7.53;;;5.07;;
16354;SDS011;8287;51.644;8.494;2023-08-21T01:31:07;6.22;;;4.15;;
16354;SDS011;8287;51.644;8.494;2023-08-21T01:33:39;5.70;;;5.18;;
16354;SDS011;8287;51.644;8.494;2023-08-21T01:36:10;9.10;;;4.55;;
16354;SDS011;8287;51.644;8.494;2023-08-21T01:38:38;4.35;;;3.95;;
16354;SDS011;8287;51.644;8.494;2023-08-21T01:41:06;4.55;;;4.15;;
16354;SDS011;8287;51.644;8.494;2023-08-21T01:43:32;4.32;;;3.65;;
16354;SDS011;8287;51.644;8.494;2023-08-21T01:46:00;4.43;;;4.03;;
16354;SDS011;8287;51.644;8.494;2023-08-21T01:48:27;8.27;;;3.83;;
16354;SDS011;8287;51.644;8.494;2023-08-21T01:50:54;4.68;;;3.95;;
16354;SDS011;8287;51.644;8.494;2023-08-21T01:53:20;4.20;;;3.80;;
16354;SDS011;8287;51.644;8.494;2023-08-21T01:55:47;6.07;;;4.68;;
16354;SDS011;8287;51.644;8.494;2023-08-21T01:58:15;4.70;;;3.85;;
16354;SDS011;8287;51.644;8.494;2023-08-21T02:00:42;6.10;;;4.43;;
16354;SDS011;8287;51.644;8.494;2023-08-21T02:03:12;4.72;;;4.32;;
16354;SDS011;8287;51.644;8.494;2023-08-21T02:05:38;5.95;;;4.25;;
16354;SDS011;8287;51.644;8.494;2023-08-21T02:08:06;5.63;;;4.28;;
16354;SDS011;8287;51.644;8.494;2023-08-21T02:10:33;4.38;;;3.97;;
16354;SDS011;8287;51.644;8.494;2023-08-21T02:13:00;6.35;;;4.55;;
16354;SDS011;8287;51.644;8.494;2023-08-21T02:15:28;4.72;;;4.32;;
16354;SDS011;8287;51.644;8.494;2023-08-21T02:17:54;5.05;;;4.20;;
16354;SDS011;8287;51.644;8.494;2023-08-21T02:20:21;6.68;;;4.72;;
16354;SDS011;8287;51.644;8.494;2023-08-21T02:22:47;4.53;;;4.13;;
16354;SDS011;8287;51.644;8.494;2023-08-21T02:25:14;5.35;;;4.15;;
16354;SDS011;8287;51.644;8.494;2023-08-21T02:27:41;5.75;;;4.22;;
16354;SDS011;8287;51.644;8.494;2023-08-21T02:30:08;4.63;;;4.18;;
16354;SDS011;8287;51.644;8.494;2023-08-21T02:32:36;6.10;;;5.50;;
16354;SDS011;8287;51.644;8.494;2023-08-21T02:35:05;5.90;;;4.38;;
16354;SDS011;8287;51.644;8.494;2023-08-21T02:37:32;4.45;;;3.95;;
16354;SDS011;8287;51.644;8.494;2023-08-21T02:39:59;5.05;;;3.85;;
16354;SDS011;8287;51.644;8.494;2023-08-21T02:42:26;4.90;;;4.15;;
16354;SDS011;8287;51.644;8.494;2023-08-21T02:44:52;6.15;;;3.88;;
16354;SDS011;8287;51.644;8.494;2023-08-21T02:47:19;5.53;;;4.28;;
16354;SDS011;8287;51.644;8.494;2023-08-21T02:49:47;4.15;;;3.75;;
16354;SDS011;8287;51.644;8.494;2023-08-21T02:52:13;5.93;;;4.10;;
16354;SDS011;8287;51.644;8.494;2023-08-21T02:54:40;4.63;;;4.22;;
16354;SDS011;8287;51.644;8.494;2023-08-21T02:57:07;6.18;;;3.88;;
16354;SDS011;8287;51.644;8.494;2023-08-21T02:59:33;10.07;;;4.30;;
16354;SDS011;8287;51.644;8.494;2023-08-21T03:02:00;4.43;;;3.63;;
16354;SDS011;8287;51.644;8.494;2023-08-21T03:04:27;6.05;;;4.05;;
16354;SDS011;8287;51.644;8.494;2023-08-21T03:06:55;5.28;;;4.40;;
16354;SDS011;8287;51.644;8.494;2023-08-21T03:09:21;4.22;;;3.80;;
16354;SDS011;8287;51.644;8.494;2023-08-21T03:11:48;3.70;;;3.40;;
16354;SDS011;8287;51.644;8.494;2023-08-21T03:14:14;4.30;;;3.78;;
16354;SDS011;8287;51.644;8.494;2023-08-21T03:16:41;5.25;;;3.60;;
16354;SDS011;8287;51.644;8.494;2023-08-21T03:19:08;7.30;;;5.68;;
16354;SDS011;8287;51.644;8.494;2023-08-21T03:21:34;6.53;;;4.88;;
16354;SDS011;8287;51.644;8.494;2023-08-21T03:24:02;6.22;;;5.60;;
16354;SDS011;8287;51.644;8.494;2023-08-21T03:26:29;6.35;;;4.70;;
16354;SDS011;8287;51.644;8.494;2023-08-21T03:28:56;4.93;;;4.47;;
16354;SDS011;8287;51.644;8.494;2023-08-21T03:31:23;4.78;;;4.28;;
16354;SDS011;8287;51.644;8.494;2023-08-21T03:33:49;6.40;;;4.50;;
16354;SDS011;8287;51.644;8.494;2023-08-21T03:36:16;5.53;;;4.90;;
16354;SDS011;8287;51.644;8.494;2023-08-21T03:38:44;4.88;;;4.03;;
16354;SDS011;8287;51.644;8.494;2023-08-21T03:41:12;5.88;;;4.90;;
16354;SDS011;8287;51.644;8.494;2023-08-21T03:43:38;6.55;;;4.35;;
16354;SDS011;8287;51.644;8.494;2023-08-21T03:46:05;7.13;;;4.68;;
16354;SDS011;8287;51.644;8.494;2023-08-21T03:48:32;8.23;;;4.82;;
16354;SDS011;8287;51.644;8.494;2023-08-21T03:50:58;5.10;;;4.63;;
16354;SDS011;8287;51.644;8.494;2023-08-21T03:53:25;5.50;;;4.05;;
16354;SDS011;8287;51.644;8.494;2023-08-21T03:55:52;5.68;;;4.63;;
16354;SDS011;8287;51.644;8.494;2023-08-21T03:58:20;4.88;;;4.38;;
16354;SDS011;8287;51.644;8.494;2023-08-21T04:00:47;6.00;;;5.13;;
16354;SDS011;8287;51.644;8.494;2023-08-21T04:03:13;6.63;;;5.20;;
16354;SDS011;8287;51.644;8.494;2023-08-21T04:05:40;5.65;;;4.50;;
16354;SDS011;8287;51.644;8.494;2023-08-21T04:08:07;5.28;;;4.40;;
16354;SDS011;8287;51.644;8.494;2023-08-21T04:10:33;5.65;;;4.82;;
16354;SDS011;8287;51.644;8.494;2023-08-21T04:13:00;6.07;;;5.40;;
16354;SDS011;8287;51.644;8.494;2023-08-21T04:15:28;7.55;;;5.13;;
16354;SDS011;8287;51.644;8.494;2023-08-21T04:17:55;8.18;;;5.93;;
16354;SDS011;8287;51.644;8.494;2023-08-21T04:20:21;6.20;;;5.60;;
16354;SDS011;8287;51.644;8.494;2023-08-21T04:22:48;5.65;;;5.05;;
16354;SDS011;8287;51.644;8.494;2023-08-21T04:25:15;6.30;;;5.60;;
16354;SDS011;8287;51.644;8.494;2023-08-21T04:27:42;5.47;;;4.97;;
16354;SDS011;8287;51.644;8.494;2023-08-21T04:30:09;7.22;;;5.47;;
16354;SDS011;8287;51.644;8.494;2023-08-21T04:32:38;6.35;;;4.80;;
16354;SDS011;8287;51.644;8.494;2023-08-21T04:35:05;6.00;;;5.20;;
16354;SDS011;8287;51.644;8.494;2023-08-21T04:37:33;6.85;;;5.15;;
16354;SDS011;8287;51.644;8.494;2023-08-21T04:40:01;5.78;;;4.13;;
16354;SDS011;8287;51.644;8.494;2023-08-21T04:42:27;6.75;;;5.45;;
16354;SDS011;8287;51.644;8.494;2023-08-21T04:44:54;6.82;;;4.82;;
16354;SDS011;8287;51.644;8.494;2023-08-21T04:47:21;5.93;;;5.22;;
16354;SDS011;8287;51.644;8.494;2023-08-21T04:49:50;10.77;;;6.47;;
16354;SDS011;8287;51.644;8.494;2023-08-21T04:52:17;8.32;;;5.35;;
16354;SDS011;8287;51.644;8.494;2023-08-21T04:54:44;8.57;;;5.13;;
16354;SDS011;8287;51.644;8.494;2023-08-21T04:57:11;6.10;;;4.82;;
16354;SDS011;8287;51.644;8.494;2023-08-21T04:59:37;7.80;;;5.00;;
16354;SDS011;8287;51.644;8.494;2023-08-21T05:02:04;6.90;;;5.22;;
16354;SDS011;8287;51.644;8.494;2023-08-21T05:04:31;5.13;;;4.13;;
16354;SDS011;8287;51.644;8.494;2023-08-21T05:06:59;6.35;;;4.55;;
16354;SDS011;8287;51.644;8.494;2023-08-21T05:09:26;7.07;;;4.55;;
16354;SDS011;8287;51.644;8.494;2023-08-21T05:11:53;12.90;;;6.95;;
16354;SDS011;8287;51.644;8.494;2023-08-21T05:14:20;8.27;;;5.40;;
16354;SDS011;8287;51.644;8.494;2023-08-21T05:16:48;8.30;;;5.90;;
16354;SDS011;8287;51.644;8.494;2023-08-21T05:19:14;6.65;;;4.50;;
16354;SDS011;8287;51.644;8.494;2023-08-21T05:21:41;5.40;;;4.90;;
16354;SDS011;8287;51.644;8.494;2023-08-21T05:24:09;7.35;;;5.35;;
16354;SDS011;8287;51.644;8.494;2023-08-21T05:26:35;6.15;;;4.57;;
16354;SDS011;8287;51.644;8.494;2023-08-21T05:29:02;7.18;;;5.13;;
16354;SDS011;8287;51.644;8.494;2023-08-21T05:31:29;8.95;;;6.60;;
16354;SDS011;8287;51.644;8.494;2023-08-21T05:33:55;7.05;;;4.85;;
16354;SDS011;8287;51.644;8.494;2023-08-21T05:36:22;6.03;;;4.57;;
16354;SDS011;8287;51.644;8.494;2023-08-21T05:38:49;5.43;;;4.93;;
16354;SDS011;8287;51.644;8.494;2023-08-21T05:41:17;6.90;;;5.63;;
16354;SDS011;8287;51.644;8.494;2023-08-21T05:43:44;7.45;;;6.50;;
16354;SDS011;8287;51.644;8.494;2023-08-21T05:46:12;9.13;;;6.90;;
16354;SDS011;8287;51.644;8.494;2023-08-21T05:48:39;6.25;;;5.65;;
16354;SDS011;8287;51.644;8.494;2023-08-21T05:51:06;4.78;;;4.38;;
16354;SDS011;8287;51.644;8.494;2023-08-21T05:53:32;4.55;;;4.15;;
16354;SDS011;8287;51.644;8.494;2023-08-21T05:55:59;5.03;;;4.60;;
16354;SDS011;8287;51.644;8.494;2023-08-21T05:58:27;7.05;;;4.10;;
16354;SDS011;8287;51.644;8.494;2023-08-21T06:00:56;9.30;;;5.13;;
16354;SDS011;8287;51.644;8.494;2023-08-21T06:03:23;7.78;;;5.65;;
16354;SDS011;8287;51.644;8.494;2023-08-21T06:05:50;9.52;;;6.70;;
16354;SDS011;8287;51.644;8.494;2023-08-21T06:08:16;6.75;;;5.93;;
16354;SDS011;8287;51.644;8.494;2023-08-21T06:10:43;9.10;;;6.68;;
16354;SDS011;8287;51.644;8.494;2023-08-21T06:13:10;9.73;;;6.97;;
16354;SDS011;8287;51.644;8.494;2023-08-21T06:15:38;7.22;;;5.47;;
16354;SDS011;8287;51.644;8.494;2023-08-21T06:18:04;10.52;;;5.97;;
16354;SDS011;8287;51.644;8.494;2023-08-21T06:20:31;5.03;;;4.53;;
16354;SDS011;8287;51.644;8.494;2023-08-21T06:22:57;7.15;;;5.15;;
16354;SDS011;8287;51.644;8.494;2023-08-21T06:25:24;5.45;;;4.88;;
16354;SDS011;8287;51.644;8.494;2023-08-21T06:27:51;8.40;;;4.45;;
16354;SDS011;8287;51.644;8.494;2023-08-21T06:30:17;5.10;;;4.60;;
16354;SDS011;8287;51.644;8.494;2023-08-21T06:32:45;7.22;;;4.55;;
16354;SDS011;8287;51.644;8.494;2023-08-21T06:35:12;7.53;;;5.20;;
16354;SDS011;8287;51.644;8.494;2023-08-21T06:37:40;9.10;;;4.72;;
16354;SDS011;8287;51.644;8.494;2023-08-21T06:40:07;9.30;;;4.97;;
16354;SDS011;8287;51.644;8.494;2023-08-21T06:42:34;5.82;;;4.63;;
16354;SDS011;8287;51.644;8.494;2023-08-21T06:45:02;8.25;;;4.18;;
16354;SDS011;8287;51.644;8.494;2023-08-21T06:47:29;4.82;;;3.70;;
16354;SDS011;8287;51.644;8.494;2023-08-21T06:49:57;6.20;;;3.67;;
16354;SDS011;8287;51.644;8.494;2023-08-21T06:52:25;6.38;;;3.60;;
16354;SDS011;8287;51.644;8.494;2023-08-21T06:54:52;8.20;;;3.33;;
16354;SDS011;8287;51.644;8.494;2023-08-21T06:57:18;6.00;;;2.75;;
16354;SDS011;8287;51.644;8.494;2023-08-21T06:59:45;7.05;;;3.70;;
16354;SDS011;8287;51.644;8.494;2023-08-21T07:02:12;5.45;;;3.20;;
16354;SDS011;8287;51.644;8.494;2023-08-21T07:04:38;5.60;;;3.72;;
16354;SDS011;8287;51.644;8.494;2023-08-21T07:07:06;3.33;;;3.03;;
16354;SDS011;8287;51.644;8.494;2023-08-21T07:09:33;3.25;;;2.95;;
16354;SDS011;8287;51.644;8.494;2023-08-21T07:12:00;5.45;;;2.90;;
16354;SDS011;8287;51.644;8.494;2023-08-21T07:14:27;2.75;;;2.50;;
16354;SDS011;8287;51.644;8.494;2023-08-21T07:16:53;5.90;;;3.10;;
16354;SDS011;8287;51.644;8.494;2023-08-21T07:19:20;4.00;;;2.88;;
16354;SDS011;8287;51.644;8.494;2023-08-21T07:21:47;4.85;;;2.45;;
16354;SDS011;8287;51.644;8.494;2023-08-21T07:24:15;2.75;;;2.05;;
16354;SDS011;8287;51.644;8.494;2023-08-21T07:26:41;2.95;;;2.08;;
16354;SDS011;8287;51.644;8.494;2023-08-21T07:29:08;2.67;;;2.13;;
16354;SDS011;8287;51.644;8.494;2023-08-21T07:31:35;6.57;;;2.42;;
16354;SDS011;8287;51.644;8.494;2023-08-21T07:34:01;4.18;;;2.58;;
16354;SDS011;8287;51.644;8.494;2023-08-21T07:36:28;2.97;;;2.28;;
16354;SDS011;8287;51.644;8.494;2023-08-21T07:38:54;5.22;;;2.63;;
16354;SDS011;8287;51.644;8.494;2023-08-21T07:41:22;5.30;;;2.38;;
16354;SDS011;8287;51.644;8.494;2023-08-21T07:43:49;3.30;;;1.88;;
16354;SDS011;8287;51.644;8.494;2023-08-21T07:46:16;3.25;;;2.00;;
16354;SDS011;8287;51.644;8.494;2023-08-21T07:48:43;3.10;;;1.80;;
16354;SDS011;8287;51.644;8.494;2023-08-21T07:51:10;4.32;;;2.40;;
16354;SDS011;8287;51.644;8.494;2023-08-21T07:53:38;7.00;;;2.13;;
16354;SDS011;8287;51.644;8.494;2023-08-21T07:56:05;8.38;;;2.42;;
16354;SDS011;8287;51.644;8.494;2023-08-21T07:58:33;4.38;;;2.33;;
16354;SDS011;8287;51.644;8.494;2023-08-21T08:01:00;5.35;;;2.20;;
16354;SDS011;8287;51.644;8.494;2023-08-21T08:03:27;2.63;;;2.38;;
16354;SDS011;8287;51.644;8.494;2023-08-21T08:05:53;4.00;;;1.92;;
16354;SDS011;8287;51.644;8.494;2023-08-21T08:08:20;4.28;;;2.35;;
16354;SDS011;8287;51.644;8.494;2023-08-21T08:10:47;4.88;;;2.80;;
16354;SDS011;8287;51.644;8.494;2023-08-21T08:13:14;4.55;;;2.35;;
16354;SDS011;8287;51.644;8.494;2023-08-21T08:15:42;3.72;;;1.95;;
16354;SDS011;8287;51.644;8.494;2023-08-21T08:18:10;3.33;;;1.55;;
16354;SDS011;8287;51.644;8.494;2023-08-21T08:20:38;2.08;;;1.88;;
16354;SDS011;8287;51.644;8.494;2023-08-21T08:23:05;1.88;;;1.73;;
16354;SDS011;8287;51.644;8.494;2023-08-21T08:25:31;3.63;;;2.22;;
16354;SDS011;8287;51.644;8.494;2023-08-21T08:27:58;2.88;;;2.00;;
16354;SDS011;8287;51.644;8.494;2023-08-21T08:30:25;3.35;;;1.90;;
16354;SDS011;8287;51.644;8.494;2023-08-21T08:32:53;4.57;;;1.73;;
16354;SDS011;8287;51.644;8.494;2023-08-21T08:35:19;4.47;;;1.90;;
16354;SDS011;8287;51.644;8.494;2023-08-21T08:37:46;1.75;;;1.65;;
16354;SDS011;8287;51.644;8.494;2023-08-21T08:40:13;3.60;;;1.50;;
16354;SDS011;8287;51.644;8.494;2023-08-21T08:42:39;2.60;;;2.00;;
16354;SDS011;8287;51.644;8.494;2023-08-21T08:45:06;3.00;;;2.05;;
16354;SDS011;8287;51.644;8.494;2023-08-21T08:47:34;2.30;;;1.70;;
16354;SDS011;8287;51.644;8.494;2023-08-21T08:50:03;3.45;;;1.88;;
16354;SDS011;8287;51.644;8.494;2023-08-21T08:52:34;2.72;;;2.03;;
16354;SDS011;8287;51.644;8.494;2023-08-21T08:55:02;3.05;;;2.63;;
16354;SDS011;8287;51.644;8.494;2023-08-21T08:57:29;5.50;;;2.22;;
16354;SDS011;8287;51.644;8.494;2023-08-21T08:59:56;3.28;;;1.70;;
16354;SDS011;8287;51.644;8.494;2023-08-21T09:02:24;5.13;;;2.00;;
16354;SDS011;8287;51.644;8.494;2023-08-21T09:04:51;2.30;;;2.10;;
16354;SDS011;8287;51.644;8.494;2023-08-21T09:07:19;3.53;;;1.58;;
16354;SDS011;8287;51.644;8.494;2023-08-21T09:09:47;4.20;;;1.85;;
16354;SDS011;8287;51.644;8.494;2023-08-21T09:12:16;2.95;;;2.50;;
16354;SDS011;8287;51.644;8.494;2023-08-21T09:14:43;3.15;;;1.67;;
16354;SDS011;8287;51.644;8.494;2023-08-21T09:17:11;3.15;;;1.70;;
16354;SDS011;8287;51.644;8.494;2023-08-21T09:19:38;9.38;;;1.75;;
16354;SDS011;8287;51.644;8.494;2023-08-21T09:22:08;2.28;;;1.55;;
16354;SDS011;8287;51.644;8.494;2023-08-21T09:24:39;2.42;;;1.90;;
16354;SDS011;8287;51.644;8.494;2023-08-21T09:27:13;3.75;;;1.90;;
16354;SDS011;8287;51.644;8.494;2023-08-21T09:29:42;4.30;;;1.83;;
16354;SDS011;8287;51.644;8.494;2023-08-21T09:32:09;5.75;;;2.20;;
16354;SDS011;8287;51.644;8.494;2023-08-21T09:34:36;3.78;;;2.03;;
16354;SDS011;8287;51.644;8.494;2023-08-21T09:37:04;1.77;;;1.67;;
16354;SDS011;8287;51.644;8.494;2023-08-21T09:39:33;5.50;;;2.10;;
16354;SDS011;8287;51.644;8.494;2023-08-21T09:42:01;4.22;;;1.88;;
16354;SDS011;8287;51.644;8.494;2023-08-21T09:44:35;4.60;;;2.30;;
16354;SDS011;8287;51.644;8.494;2023-08-21T09:47:02;2.78;;;1.98;;
16354;SDS011;8287;51.644;8.494;2023-08-21T09:49:29;4.53;;;2.17;;
16354;SDS011;8287;51.644;8.494;2023-08-21T09:51:57;2.25;;;1.70;;
16354;SDS011;8287;51.644;8.494;2023-08-21T09:54:25;1.90;;;1.80;;
16354;SDS011;8287;51.644;8.494;2023-08-21T09:56:52;4.28;;;2.15;;
16354;SDS011;8287;51.644;8.494;2023-08-21T09:59:20;4.05;;;2.10;;
16354;SDS011;8287;51.644;8.494;2023-08-21T10:01:50;7.25;;;1.88;;
16354;SDS011;8287;51.644;8.494;2023-08-21T10:04:17;5.07;;;2.30;;
16354;SDS011;8287;51.644;8.494;2023-08-21T10:06:49;4.00;;;1.90;;
16354;SDS011;8287;51.644;8.494;2023-08-21T10:09:18;2.25;;;1.60;;
16354;SDS011;8287;51.644;8.494;2023-08-21T10:11:47;2.20;;;2.00;;
16354;SDS011;8287;51.644;8.494;2023-08-21T10:14:15;3.10;;;1.88;;
16354;SDS011;8287;51.644;8.494;2023-08-21T10:16:43;2.97;;;2.10;;
16354;SDS011;8287;51.644;8.494;2023-08-21T10:19:13;3.90;;;1.58;;
16354;SDS011;8287;51.644;8.494;2023-08-21T10:21:40;3.35;;;2.08;;
16354;SDS011;8287;51.644;8.494;2023-08-21T10:24:07;3.85;;;2.25;;
16354;SDS011;8287;51.644;8.494;2023-08-21T10:26:37;2.80;;;1.40;;
16354;SDS011;8287;51.644;8.494;2023-08-21T10:29:05;2.05;;;1.60;;
16354;SDS011;8287;51.644;8.494;2023-08-21T10:31:34;4.40;;;1.88;;
16354;SDS011;8287;51.644;8.494;2023-08-21T10:34:05;6.20;;;1.50;;
16354;SDS011;8287;51.644;8.494;2023-08-21T10:39:37;1.60;;;1.48;;
16354;SDS011;8287;51.644;8.494;2023-08-21T10:42:06;3.63;;;2.65;;
16354;SDS011;8287;51.644;8.494;2023-08-21T10:44:35;2.15;;;1.50;;
16354;SDS011;8287;51.644;8.494;2023-08-21T10:47:13;1.80;;;1.52;;
16354;SDS011;8287;51.644;8.494;2023-08-21T10:49:43;2.25;;;1.50;;
16354;SDS011;8287;51.644;8.494;2023-08-21T10:52:10;3.85;;;1.55;;
16354;SDS011;8287;51.644;8.494;2023-08-21T10:54:46;2.90;;;1.48;;
16354;SDS011;8287;51.644;8.494;2023-08-21T10:57:14;3.05;;;1.58;;
16354;SDS011;8287;51.644;8.494;2023-08-21T10:59:51;2.30;;;1.30;;
16354;SDS011;8287;51.644;8.494;2023-08-21T11:02:19;1.95;;;1.50;;
16354;SDS011;8287;51.644;8.494;2023-08-21T11:04:47;2.78;;;1.30;;
16354;SDS011;8287;51.644;8.494;2023-08-21T11:07:14;5.93;;;1.70;;
16354;SDS011;8287;51.644;8.494;2023-08-21T11:09:41;2.03;;;1.45;;
16354;SDS011;8287;51.644;8.494;2023-08-21T11:12:09;3.45;;;1.67;;
16354;SDS011;8287;51.644;8.494;2023-08-21T11:14:38;4.53;;;1.63;;
16354;SDS011;8287;51.644;8.494;2023-08-21T11:17:05;2.45;;;1.23;;
16354;SDS011;8287;51.644;8.494;2023-08-21T11:19:33;1.27;;;0.82;;
16354;SDS011;8287;51.644;8.494;2023-08-21T11:22:02;1.92;;;1.60;;
16354;SDS011;8287;51.644;8.494;2023-08-21T11:24:31;2.03;;;1.63;;
16354;SDS011;8287;51.644;8.494;2023-08-21T11:27:06;2.45;;;1.30;;
16354;SDS011;8287;51.644;8.494;2023-08-21T11:29:36;3.13;;;1.58;;
16354;SDS011;8287;51.644;8.494;2023-08-21T11:32:07;3.67;;;1.67;;
16354;SDS011;8287;51.644;8.494;2023-08-21T11:34:35;3.42;;;1.58;;
16354;SDS011;8287;51.644;8.494;2023-08-21T11:37:03;4.03;;;1.58;;
16354;SDS011;8287;51.644;8.494;2023-08-21T11:39:44;4.00;;;1.55;;
16354;SDS011;8287;51.644;8.494;2023-08-21T11:42:15;5.28;;;1.70;;
16354;SDS011;8287;51.644;8.494;2023-08-21T11:44:46;3.00;;;1.55;;
16354;SDS011;8287;51.644;8.494;2023-08-21T11:47:13;2.45;;;1.40;;
16354;SDS011;8287;51.644;8.494;2023-08-21T11:49:41;2.08;;;1.35;;
16354;SDS011;8287;51.644;8.494;2023-08-21T11:52:10;4.78;;;1.35;;
16354;SDS011;8287;51.644;8.494;2023-08-21T11:54:38;4.20;;;1.55;;
16354;SDS011;8287;51.644;8.494;2023-08-21T11:57:07;4.13;;;1.70;;
16354;SDS011;8287;51.644;8.494;2023-08-21T11:59:35;4.50;;;1.55;;
16354;SDS011;8287;51.644;8.494;2023-08-21T12:02:07;1.77;;;1.40;;
16354;SDS011;8287;51.644;8.494;2023-08-21T12:04:36;2.22;;;1.38;;
16354;SDS011;8287;51.644;8.494;2023-08-21T12:07:02;2.47;;;1.35;;
16354;SDS011;8287;51.644;8.494;2023-08-21T12:09:31;1.90;;;1.52;;
16354;SDS011;8287;51.644;8.494;2023-08-21T12:11:58;3.08;;;1.58;;
16354;SDS011;8287;51.644;8.494;2023-08-21T12:14:24;4.00;;;2.05;;
16354;SDS011;8287;51.644;8.494;2023-08-21T12:16:52;1.70;;;1.60;;
16354;SDS011;8287;51.644;8.494;2023-08-21T12:19:19;2.83;;;2.03;;
16354;SDS011;8287;51.644;8.494;2023-08-21T12:21:46;1.70;;;1.40;;
16354;SDS011;8287;51.644;8.494;2023-08-21T12:24:13;1.45;;;1.35;;
16354;SDS011;8287;51.644;8.494;2023-08-21T12:26:44;2.22;;;1.67;;
16354;SDS011;8287;51.644;8.494;2023-08-21T12:29:11;2.95;;;1.50;;
16354;SDS011;8287;51.644;8.494;2023-08-21T12:31:37;2.65;;;1.85;;
16354;SDS011;8287;51.644;8.494;2023-08-21T12:34:04;2.78;;;1.88;;
16354;SDS011;8287;51.644;8.494;2023-08-21T12:36:33;2.40;;;1.95;;
16354;SDS011;8287;51.644;8.494;2023-08-21T12:39:01;2.47;;;2.03;;
16354;SDS011;8287;51.644;8.494;2023-08-21T12:41:28;2.33;;;1.77;;
16354;SDS011;8287;51.644;8.494;2023-08-21T12:43:56;2.08;;;1.85;;
16354;SDS011;8287;51.644;8.494;2023-08-21T12:46:23;2.80;;;1.60;;
16354;SDS011;8287;51.644;8.494;2023-08-21T12:48:51;4.10;;;2.63;;
16354;SDS011;8287;51.644;8.494;2023-08-21T12:51:18;3.97;;;1.88;;
16354;SDS011;8287;51.644;8.494;2023-08-21T12:53:44;2.80;;;1.73;;
16354;SDS011;8287;51.644;8.494;2023-08-21T12:56:11;5.07;;;2.30;;
16354;SDS011;8287;51.644;8.494;2023-08-21T12:58:38;2.05;;;1.95;;
16354;SDS011;8287;51.644;8.494;2023-08-21T13:01:06;2.40;;;2.17;;
16354;SDS011;8287;51.644;8.494;2023-08-21T13:03:33;2.30;;;2.10;;
16354;SDS011;8287;51.644;8.494;2023-08-21T13:05:59;3.72;;;2.38;;
16354;SDS011;8287;51.644;8.494;2023-08-21T13:08:26;3.22;;;2.60;;
16354;SDS011;8287;51.644;8.494;2023-08-21T13:10:53;5.47;;;2.53;;
16354;SDS011;8287;51.644;8.494;2023-08-21T13:13:19;4.13;;;2.50;;
16354;SDS011;8287;51.644;8.494;2023-08-21T13:15:46;2.90;;;2.33;;
16354;SDS011;8287;51.644;8.494;2023-08-21T13:18:14;4.28;;;2.40;;
16354;SDS011;8287;51.644;8.494;2023-08-21T13:20:41;2.45;;;2.25;;
16354;SDS011;8287;51.644;8.494;2023-08-21T13:23:08;4.45;;;2.53;;
16354;SDS011;8287;51.644;8.494;2023-08-21T13:25:34;3.67;;;1.80;;
16354;SDS011;8287;51.644;8.494;2023-08-21T13:28:01;3.30;;;1.73;;
16354;SDS011;8287;51.644;8.494;2023-08-21T13:30:29;3.33;;;1.52;;
16354;SDS011;8287;51.644;8.494;2023-08-21T13:32:56;2.50;;;1.60;;
16354;SDS011;8287;51.644;8.494;2023-08-21T13:35:24;5.05;;;1.70;;
16354;SDS011;8287;51.644;8.494;2023-08-21T13:37:51;5.68;;;2.10;;
16354;SDS011;8287;51.644;8.494;2023-08-21T13:40:18;3.95;;;2.03;;
16354;SDS011;8287;51.644;8.494;2023-08-21T13:42:45;3.13;;;1.48;;
16354;SDS011;8287;51.644;8.494;2023-08-21T13:45:13;8.52;;;2.05;;
16354;SDS011;8287;51.644;8.494;2023-08-21T13:47:41;3.72;;;2.20;;
16354;SDS011;8287;51.644;8.494;2023-08-21T13:50:10;2.63;;;1.83;;
16354;SDS011;8287;51.644;8.494;2023-08-21T13:52:38;4.28;;;1.95;;
16354;SDS011;8287;51.644;8.494;2023-08-21T13:55:06;6.80;;;2.60;;
16354;SDS011;8287;51.644;8.494;2023-08-21T13:57:33;4.25;;;2.20;;
16354;SDS011;8287;51.644;8.494;2023-08-21T14:00:00;2.47;;;1.92;;
16354;SDS011;8287;51.644;8.494;2023-08-21T14:02:32;4.65;;;2.25;;
16354;SDS011;8287;51.644;8.494;2023-08-21T14:04:59;5.85;;;1.90;;
16354;SDS011;8287;51.644;8.494;2023-08-21T14:07:26;3.38;;;1.80;;
16354;SDS011;8287;51.644;8.494;2023-08-21T14:09:54;2.38;;;1.73;;
16354;SDS011;8287;51.644;8.494;2023-08-21T14:12:21;3.45;;;2.42;;
16354;SDS011;8287;51.644;8.494;2023-08-21T14:14:47;2.78;;;2.10;;
16354;SDS011;8287;51.644;8.494;2023-08-21T14:17:14;1.55;;;1.45;;
16354;SDS011;8287;51.644;8.494;2023-08-21T14:19:41;2.67;;;1.77;;
16354;SDS011;8287;51.644;8.494;2023-08-21T14:22:07;4.07;;;1.77;;
16354;SDS011;8287;51.644;8.494;2023-08-21T14:24:34;2.45;;;1.58;;
16354;SDS011;8287;51.644;8.494;2023-08-21T14:27:02;4.28;;;1.75;;
16354;SDS011;8287;51.644;8.494;2023-08-21T14:29:29;3.28;;;1.65;;
16354;SDS011;8287;51.644;8.494;2023-08-21T14:31:56;5.63;;;2.13;;
16354;SDS011;8287;51.644;8.494;2023-08-21T14:34:24;3.63;;;1.60;;
16354;SDS011;8287;51.644;8.494;2023-08-21T14:36:51;4.28;;;2.22;;
16354;SDS011;8287;51.644;8.494;2023-08-21T14:39:19;2.45;;;1.80;;
16354;SDS011;8287;51.644;8.494;2023-08-21T14:41:46;3.75;;;1.92;;
16354;SDS011;8287;51.644;8.494;2023-08-21T14:44:14;4.57;;;2.55;;
16354;SDS011;8287;51.644;8.494;2023-08-21T14:46:41;3.67;;;1.73;;
16354;SDS011;8287;51.644;8.494;2023-08-21T14:49:07;2.28;;;1.50;;
16354;SDS011;8287;51.644;8.494;2023-08-21T14:51:34;5.82;;;2.35;;
16354;SDS011;8287;51.644;8.494;2023-08-21T14:54:01;4.45;;;2.38;;
16354;SDS011;8287;51.644;8.494;2023-08-21T14:56:27;4.47;;;1.92;;
16354;SDS011;8287;51.644;8.494;2023-08-21T14:58:55;3.22;;;2.10;;
16354;SDS011;8287;51.644;8.494;2023-08-21T15:01:23;4.57;;;2.50;;
16354;SDS011;8287;51.644;8.494;2023-08-21T15:03:50;4.13;;;1.92;;
16354;SDS011;8287;51.644;8.494;2023-08-21T15:06:16;2.63;;;1.70;;